createdAt,value
2022-08-05T00:02:11.576Z,3.80
2022-08-05T00:06:02.611Z,3.25
2022-08-05T00:08:44.775Z,3.50
2022-08-05T00:11:55.613Z,3.35
2022-08-05T00:15:54.353Z,3.10
2022-08-05T00:18:27.733Z,3.10
2022-08-05T00:21:35.669Z,3.10
2022-08-05T00:24:42.363Z,3.40
2022-08-05T00:27:48.597Z,2.90
2022-08-05T00:30:56.533Z,3.45
2022-08-05T00:34:54.739Z,3.10
2022-08-05T00:37:53.235Z,2.80
2022-08-05T00:40:59.932Z,3.55
2022-08-05T00:44:06.094Z,3.35
2022-08-05T00:47:12.142Z,3.00
2022-08-05T00:50:18.290Z,3.28
2022-08-05T00:53:45.130Z,3.17
2022-08-05T00:56:53.418Z,3.50
2022-08-05T00:59:58.900Z,3.47
2022-08-05T01:03:07.898Z,3.45
2022-08-05T01:06:15.482Z,3.55
2022-08-05T01:09:21.398Z,3.60
2022-08-05T01:12:29.796Z,3.63
2022-08-05T01:15:47.806Z,3.28
2022-08-05T01:19:00.817Z,3.72
2022-08-05T01:22:57.398Z,3.58
2022-08-05T01:26:40.088Z,3.30
2022-08-05T01:29:53.112Z,3.50
2022-08-05T01:33:01.194Z,3.40
2022-08-05T01:36:12.943Z,3.70
2022-08-05T01:39:36.876Z,3.00
2022-08-05T01:42:50.084Z,3.20
2022-08-05T01:45:56.819Z,3.25
2022-08-05T01:49:12.212Z,3.53
2022-08-05T01:52:30.414Z,3.30
2022-08-05T01:55:36.486Z,3.30
2022-08-05T01:58:45.091Z,3.55
2022-08-05T02:01:57.638Z,3.50
2022-08-05T02:05:11.751Z,3.70
2022-08-05T02:08:30.918Z,3.17
2022-08-05T02:11:55.605Z,3.78
2022-08-05T02:15:19.782Z,3.60
2022-08-05T02:18:41.977Z,3.83
2022-08-05T02:22:25.561Z,3.45
2022-08-05T02:25:48.886Z,3.22
2022-08-05T02:28:58.381Z,3.88
2022-08-05T02:32:05.229Z,3.63
2022-08-05T02:35:14.557Z,3.50
2022-08-05T02:38:27.045Z,4.10
2022-08-05T02:41:57.489Z,3.70
2022-08-05T02:45:08.316Z,4.03
2022-08-05T02:48:16.590Z,4.00
2022-08-05T02:51:28.211Z,3.90
2022-08-05T02:54:50.686Z,4.10
2022-08-05T02:58:11.605Z,3.95
2022-08-05T03:01:24.111Z,4.35
2022-08-05T03:04:32.152Z,3.72
2022-08-05T03:07:59.323Z,3.90
2022-08-05T03:11:57.148Z,4.30
2022-08-05T03:14:51.153Z,3.92
2022-08-05T03:17:57.471Z,3.83
2022-08-05T03:21:03.393Z,4.47
2022-08-05T03:24:10.086Z,3.95
2022-08-05T03:27:20.923Z,4.15
2022-08-05T03:30:33.738Z,4.47
2022-08-05T03:33:51.180Z,4.18
2022-08-05T03:36:58.729Z,4.10
2022-08-05T03:40:08.851Z,3.97
2022-08-05T03:44:09.122Z,4.30
2022-08-05T03:46:43.715Z,4.13
2022-08-05T03:49:52.522Z,4.93
2022-08-05T03:55:51.935Z,4.70
2022-08-05T03:56:44.788Z,4.63
2022-08-05T03:59:57.878Z,4.75
2022-08-05T04:03:04.492Z,4.68
2022-08-05T04:06:13.447Z,4.57
2022-08-05T04:09:26.513Z,4.63
2022-08-05T04:16:03.221Z,4.70
2022-08-05T04:19:10.680Z,5.05
2022-08-05T04:22:20.441Z,4.72
2022-08-05T04:25:57.956Z,4.60
2022-08-05T04:28:53.115Z,4.97
2022-08-05T04:31:59.416Z,4.90
2022-08-05T04:35:06.957Z,4.93
2022-08-05T04:38:39.760Z,5.30
2022-08-05T04:41:48.001Z,4.70
2022-08-05T04:44:54.411Z,4.90
2022-08-05T04:48:18.379Z,4.13
2022-08-05T04:51:32.910Z,4.68
2022-08-05T04:54:40.774Z,4.38
2022-08-05T04:57:47.699Z,4.82
2022-08-05T05:00:54.134Z,4.40
2022-08-05T05:03:59.941Z,5.00
2022-08-05T05:07:09.429Z,4.55
2022-08-05T05:10:15.174Z,4.68
2022-08-05T05:13:20.648Z,4.97
2022-08-05T05:16:30.429Z,4.80
2022-08-05T05:19:44.018Z,5.22
2022-08-05T05:22:50.569Z,4.80
2022-08-05T05:25:56.188Z,4.82
2022-08-05T05:29:02.683Z,4.90
2022-08-05T05:32:20.139Z,4.88
2022-08-05T05:35:27.440Z,5.05
2022-08-05T05:38:35.268Z,4.72
2022-08-05T05:41:41.931Z,5.40
2022-08-05T05:44:48.307Z,4.70
2022-08-05T05:48:06.178Z,5.00
2022-08-05T05:51:22.295Z,4.80
2022-08-05T05:54:50.420Z,4.97
2022-08-05T05:57:56.726Z,4.60
2022-08-05T06:01:13.388Z,5.13
2022-08-05T06:04:22.121Z,4.57
2022-08-05T06:07:42.098Z,4.75
2022-08-05T06:10:49.215Z,5.00
2022-08-05T06:14:00.303Z,4.80
2022-08-05T06:17:22.560Z,4.82
2022-08-05T06:20:30.532Z,4.35
2022-08-05T06:23:43.587Z,4.65
2022-08-05T06:26:51.227Z,4.68
2022-08-05T06:30:04.510Z,4.65
2022-08-05T06:33:19.051Z,4.32
2022-08-05T06:36:27.053Z,4.68
2022-08-05T06:39:43.985Z,4.53
2022-08-05T06:42:51.690Z,4.45
2022-08-05T06:46:07.098Z,4.55
2022-08-05T06:49:13.199Z,4.72
2022-08-05T06:52:36.672Z,4.53
2022-08-05T06:55:43.109Z,4.43
2022-08-05T06:58:51.459Z,4.95
2022-08-05T07:01:57.677Z,4.80
2022-08-05T07:05:05.102Z,4.68
2022-08-05T07:08:25.116Z,4.60
2022-08-05T07:11:31.396Z,4.60
2022-08-05T07:15:01.806Z,5.20
2022-08-05T07:18:11.572Z,5.15
2022-08-05T07:21:25.691Z,4.53
2022-08-05T07:24:35.056Z,4.85
2022-08-05T07:27:58.122Z,4.30
2022-08-05T07:31:08.608Z,4.43
2022-08-05T07:34:21.205Z,4.43
2022-08-05T07:37:37.530Z,4.68
2022-08-05T07:40:46.516Z,4.10
2022-08-05T07:44:06.203Z,4.45
2022-08-05T07:47:25.732Z,4.35
2022-08-05T07:50:32.406Z,4.10
2022-08-05T07:53:50.522Z,4.60
2022-08-05T07:57:01.581Z,4.60
2022-08-05T08:00:20.943Z,4.70
2022-08-05T08:03:44.393Z,4.57
2022-08-05T08:06:51.276Z,4.90
2022-08-05T08:09:57.677Z,4.20
2022-08-05T08:13:03.657Z,4.00
2022-08-05T08:16:35.215Z,4.10
2022-08-05T08:20:21.789Z,4.10
2022-08-05T08:23:03.083Z,3.97
2022-08-05T08:26:08.978Z,4.30
2022-08-05T08:29:45.117Z,4.53
2022-08-05T08:32:41.758Z,4.13
2022-08-05T08:35:52.882Z,4.40
2022-08-05T08:39:04.065Z,4.82
2022-08-05T08:42:41.961Z,4.38
2022-08-05T08:45:38.095Z,4.95
2022-08-05T08:49:07.545Z,5.00
2022-08-05T08:52:22.386Z,5.05
2022-08-05T08:55:32.071Z,4.72
2022-08-05T08:58:59.451Z,5.10
2022-08-05T09:02:08.712Z,5.60
2022-08-05T09:05:17.905Z,5.05
2022-08-05T09:08:27.273Z,5.40
2022-08-05T09:11:53.042Z,6.28
2022-08-05T09:15:05.856Z,4.85
2022-08-05T09:18:13.510Z,4.95
2022-08-05T09:21:20.650Z,4.90
2022-08-05T09:24:27.431Z,5.00
2022-08-05T09:28:04.857Z,4.70
2022-08-05T09:32:38.594Z,5.07
2022-08-05T09:34:54.117Z,5.40
2022-08-05T09:38:12.210Z,4.97
2022-08-05T09:41:24.163Z,5.20
2022-08-05T09:44:35.825Z,5.38
2022-08-05T09:47:55.624Z,4.68
2022-08-05T09:51:15.219Z,4.60
2022-08-05T09:54:33.587Z,4.90
2022-08-05T09:57:43.203Z,5.00
2022-08-05T10:01:13.260Z,4.80
2022-08-05T10:04:19.800Z,5.07
2022-08-05T10:08:36.791Z,4.75
2022-08-05T10:11:23.404Z,4.70
2022-08-05T10:14:32.410Z,5.10
2022-08-05T10:17:40.711Z,5.25
2022-08-05T10:20:56.730Z,5.20
2022-08-05T10:24:09.024Z,4.80
2022-08-05T10:33:00.003Z,4.50
2022-08-05T10:36:07.437Z,4.47
2022-08-05T10:40:03.966Z,4.53
2022-08-05T10:43:12.565Z,4.63
2022-08-05T10:46:23.777Z,3.97
2022-08-05T10:49:33.356Z,4.50
2022-08-05T10:52:58.821Z,4.10
2022-08-05T10:56:25.293Z,4.22
2022-08-05T11:00:02.840Z,4.32
2022-08-05T11:03:23.461Z,4.60
2022-08-05T11:06:33.654Z,4.30
2022-08-05T11:10:03.970Z,5.07
2022-08-05T11:13:54.899Z,4.32
2022-08-05T11:17:58.859Z,3.70
2022-08-05T11:20:59.224Z,4.25
2022-08-05T11:24:29.763Z,4.40
2022-08-05T11:27:51.515Z,4.45
2022-08-05T11:31:06.620Z,4.18
2022-08-05T11:34:14.891Z,4.40
2022-08-05T11:38:29.585Z,4.47
2022-08-05T11:41:34.294Z,4.30
2022-08-05T11:44:52.820Z,4.60
2022-08-05T11:48:00.236Z,4.38
2022-08-05T11:51:06.461Z,4.22
2022-08-05T11:54:34.893Z,4.63
2022-08-05T11:58:10.029Z,3.80
2022-08-05T12:01:14.870Z,4.30
2022-08-05T12:04:26.776Z,4.50
2022-08-05T12:08:07.814Z,4.53
2022-08-05T12:11:06.166Z,4.07
2022-08-05T12:14:12.493Z,4.40
2022-08-05T12:18:10.206Z,4.50
2022-08-05T12:20:44.495Z,4.38
2022-08-05T12:24:08.766Z,4.53
2022-08-05T12:27:25.346Z,4.50
2022-08-05T12:30:38.762Z,4.30
2022-08-05T12:33:51.785Z,4.25
2022-08-05T12:37:01.838Z,4.38
2022-08-05T12:40:11.396Z,4.55
2022-08-05T12:43:32.923Z,4.90
2022-08-05T12:46:54.420Z,4.25
2022-08-05T12:50:05.520Z,4.40
2022-08-05T12:53:17.463Z,4.53
2022-08-05T12:56:35.041Z,4.20
2022-08-05T13:01:58.593Z,3.97
2022-08-05T13:03:15.990Z,4.80
2022-08-05T13:06:23.011Z,4.20
2022-08-05T13:09:30.255Z,4.25
2022-08-05T13:12:50.963Z,4.43
2022-08-05T13:16:03.853Z,4.45
2022-08-05T13:19:16.096Z,4.18
2022-08-05T13:22:29.119Z,4.20
2022-08-05T13:25:52.543Z,4.15
2022-08-05T13:29:02.544Z,4.40
2022-08-05T13:32:11.225Z,4.25
2022-08-05T13:35:22.081Z,4.22
2022-08-05T13:38:34.170Z,4.00
2022-08-05T13:41:42.378Z,4.53
2022-08-05T13:44:56.721Z,4.38
2022-08-05T13:48:09.638Z,4.25
2022-08-05T13:51:41.793Z,4.55
2022-08-05T13:54:59.296Z,4.13
2022-08-05T13:58:07.174Z,4.50
2022-08-05T14:01:17.656Z,4.40
2022-08-05T14:04:42.320Z,4.13
2022-08-05T14:07:59.919Z,4.10
2022-08-05T14:11:20.252Z,4.13
2022-08-05T14:14:32.314Z,4.47
2022-08-05T14:17:39.872Z,4.10
2022-08-05T14:20:47.356Z,4.18
2022-08-05T14:23:54.084Z,4.22
2022-08-05T14:27:17.650Z,4.57
2022-08-05T14:30:26.622Z,4.78
2022-08-05T14:33:59.542Z,4.13
2022-08-05T14:36:59.534Z,4.43
2022-08-05T14:40:07.095Z,4.50
2022-08-05T14:43:13.228Z,4.03
2022-08-05T14:46:20.349Z,4.72
2022-08-05T14:49:56.381Z,4.43
2022-08-05T14:52:57.761Z,5.03
2022-08-05T14:56:05.264Z,4.53
2022-08-05T14:59:11.923Z,4.55
2022-08-05T15:02:18.697Z,4.05
2022-08-05T15:05:29.793Z,4.38
2022-08-05T15:08:58.133Z,4.60
2022-08-05T15:12:03.869Z,4.63
2022-08-05T15:15:15.603Z,4.60
2022-08-05T15:18:21.845Z,4.80
2022-08-05T15:21:27.652Z,5.10
2022-08-05T15:24:36.089Z,5.03
2022-08-05T15:27:52.518Z,4.95
2022-08-05T15:31:00.654Z,4.93
2022-08-05T15:34:31.154Z,5.20
2022-08-05T15:38:33.185Z,4.85
2022-08-05T15:41:23.330Z,4.80
2022-08-05T15:44:31.935Z,5.10
2022-08-05T15:47:40.012Z,5.32
2022-08-05T15:50:47.610Z,4.97
2022-08-05T15:53:53.691Z,5.20
2022-08-05T15:57:00.231Z,5.10
2022-08-05T16:00:08.127Z,5.00
2022-08-05T16:03:13.927Z,5.40
2022-08-05T16:06:23.285Z,5.43
2022-08-05T16:09:29.529Z,5.32
2022-08-05T16:12:38.339Z,5.22
2022-08-05T16:15:45.255Z,5.15
2022-08-05T16:18:54.714Z,5.82
2022-08-05T16:22:03.100Z,5.53
2022-08-05T16:25:11.030Z,5.07
2022-08-05T16:28:18.207Z,4.90
2022-08-05T16:31:24.112Z,5.22
2022-08-05T16:34:33.514Z,4.85
2022-08-05T16:38:03.582Z,4.90
2022-08-05T16:42:12.289Z,5.88
2022-08-05T16:44:38.688Z,5.40
2022-08-05T16:47:55.475Z,5.10
2022-08-05T16:51:09.741Z,5.30
2022-08-05T16:54:25.784Z,5.35
2022-08-05T16:57:42.989Z,5.50
2022-08-05T17:00:59.892Z,5.82
2022-08-05T17:04:06.262Z,5.35
2022-08-05T17:07:12.006Z,5.28
2022-08-05T17:10:17.981Z,5.18
2022-08-05T17:13:37.342Z,5.35
2022-08-05T17:16:47.602Z,4.88
2022-08-05T17:20:03.178Z,4.97
2022-08-05T17:23:09.263Z,5.38
2022-08-05T17:26:36.631Z,5.05
2022-08-05T17:29:47.194Z,5.05
2022-08-05T17:32:57.253Z,4.80
2022-08-05T17:36:09.491Z,5.43
2022-08-05T17:39:34.413Z,4.88
2022-08-05T17:42:51.088Z,4.78
2022-08-05T17:45:58.965Z,4.78
2022-08-05T17:49:05.916Z,4.82
2022-08-05T17:52:12.791Z,4.88
2022-08-05T17:55:18.610Z,5.22
2022-08-05T17:58:32.630Z,5.03
2022-08-05T18:01:49.384Z,5.20
2022-08-05T18:04:57.021Z,5.07
2022-08-05T18:08:05.638Z,4.72
2022-08-05T18:11:23.996Z,5.68
2022-08-05T18:14:38.245Z,5.25
2022-08-05T18:17:59.269Z,5.60
2022-08-05T18:21:13.390Z,5.55
2022-08-05T18:24:25.331Z,5.68
2022-08-05T18:27:35.938Z,5.63
2022-08-05T18:30:54.249Z,6.15
2022-08-05T18:34:12.165Z,5.57
2022-08-05T18:37:33.629Z,5.45
2022-08-05T18:41:55.541Z,5.60
2022-08-05T18:44:13.719Z,5.50
2022-08-05T18:47:39.977Z,5.10
2022-08-05T18:52:04.542Z,5.82
2022-08-05T18:54:41.305Z,5.55
2022-08-05T18:58:03.413Z,5.65
2022-08-05T19:01:19.973Z,5.63
2022-08-05T19:05:01.688Z,5.70
2022-08-05T19:08:21.333Z,5.00
2022-08-05T19:11:30.497Z,5.43
2022-08-05T19:15:00.962Z,5.65
2022-08-05T19:18:20.620Z,5.50
2022-08-05T19:21:36.322Z,5.30
2022-08-05T19:24:55.849Z,5.38
2022-08-05T19:28:05.700Z,5.57
2022-08-05T19:31:17.708Z,5.40
2022-08-05T19:34:35.057Z,5.93
2022-08-05T19:47:57.507Z,5.45
2022-08-05T19:51:12.530Z,6.00
2022-08-05T19:54:42.361Z,5.75
2022-08-05T19:58:10.349Z,5.55
2022-08-05T20:07:58.980Z,5.20
2022-08-05T20:11:17.890Z,5.43
2022-08-05T20:14:28.173Z,5.88
2022-08-05T20:17:46.314Z,5.70
2022-08-05T20:21:07.206Z,5.63
2022-08-05T20:24:19.189Z,5.68
2022-08-05T20:27:41.521Z,5.72
2022-08-05T20:30:53.622Z,5.65
2022-08-05T20:34:07.087Z,5.70
2022-08-05T20:37:24.229Z,5.60
2022-08-05T20:40:44.498Z,5.45
2022-08-05T20:43:58.899Z,5.30
2022-08-05T20:47:12.083Z,5.43
2022-08-05T20:50:21.829Z,5.65
2022-08-05T20:53:36.530Z,5.32
2022-08-05T20:56:43.529Z,5.38
2022-08-05T21:00:21.263Z,5.45
2022-08-05T21:03:16.745Z,5.70
2022-08-05T21:06:28.412Z,5.43
2022-08-05T21:09:36.133Z,5.95
2022-08-05T21:12:57.753Z,5.20
2022-08-05T21:16:08.532Z,5.78
2022-08-05T21:19:14.625Z,5.45
2022-08-05T21:22:21.735Z,5.57
2022-08-05T21:25:33.822Z,5.70
2022-08-05T21:28:41.197Z,5.38
2022-08-05T21:31:56.468Z,5.65
2022-08-05T21:35:08.856Z,5.68
2022-08-05T21:38:24.377Z,5.65
2022-08-05T21:41:34.240Z,6.00
2022-08-05T21:44:41.808Z,6.03
2022-08-05T21:47:57.134Z,6.00
2022-08-05T21:51:03.627Z,6.10
2022-08-05T21:54:30.999Z,6.25
2022-08-05T21:57:42.727Z,6.57
2022-08-05T22:00:51.487Z,6.03
2022-08-05T22:03:57.740Z,6.13
2022-08-05T22:07:03.751Z,5.75
2022-08-05T22:10:11.132Z,5.88
2022-08-05T22:14:33.136Z,6.05
2022-08-05T22:16:51.159Z,6.15
2022-08-05T22:20:11.294Z,5.78
2022-08-05T22:24:02.076Z,5.72
2022-08-05T22:28:11.198Z,5.82
2022-08-05T22:31:05.610Z,6.20
2022-08-05T22:34:20.057Z,6.40
2022-08-05T22:37:58.968Z,6.20
2022-08-05T22:40:57.742Z,5.80
2022-08-05T22:44:05.050Z,6.35
2022-08-05T22:47:11.167Z,6.10
2022-08-05T22:50:23.264Z,6.53
2022-08-05T22:53:35.973Z,5.85
2022-08-05T22:56:42.397Z,6.40
2022-08-05T22:59:53.896Z,5.90
2022-08-05T23:03:00.345Z,6.15
2022-08-05T23:06:10.243Z,6.35
2022-08-05T23:09:52.793Z,5.88
2022-08-05T23:12:43.945Z,5.45
2022-08-05T23:15:50.155Z,5.95
2022-08-05T23:18:56.144Z,5.72
2022-08-05T23:22:02.260Z,6.05
2022-08-05T23:25:08.918Z,5.78
2022-08-05T23:28:17.466Z,5.55
2022-08-05T23:31:23.092Z,6.20
2022-08-05T23:34:28.339Z,5.75
2022-08-05T23:37:36.433Z,5.55
2022-08-05T23:40:42.481Z,5.95
2022-08-05T23:44:05.581Z,6.13
2022-08-05T23:47:15.497Z,5.55
2022-08-05T23:50:21.429Z,6.15
2022-08-05T23:53:46.559Z,6.15
2022-08-05T23:56:52.887Z,6.45
